createdAt,value
2019-04-03T00:02:16.870Z,99335.66
2019-04-03T00:04:45.312Z,99330.67
2019-04-03T00:07:13.825Z,99332.28
2019-04-03T00:09:42.298Z,99337.89
2019-04-03T00:12:11.029Z,99343.34
2019-04-03T00:14:42.162Z,99343.45
2019-04-03T00:17:09.954Z,99335.45
2019-04-03T00:19:38.379Z,99343.13
2019-04-03T00:22:06.911Z,99350.02
2019-04-03T00:24:35.353Z,99344.28
2019-04-03T00:27:03.776Z,99351.02
2019-04-03T00:29:32.272Z,99356.49
2019-04-03T00:32:00.722Z,99354.02
2019-04-03T00:34:29.175Z,99350.97
2019-04-03T00:36:57.610Z,99350.14
2019-04-03T00:39:26.042Z,99352.29
2019-04-03T00:41:55.086Z,99346.02
2019-04-03T00:44:24.256Z,99338.05
2019-04-03T00:46:53.842Z,99335.50
2019-04-03T00:49:24.396Z,99328.70
2019-04-03T00:51:53.493Z,99322.25
2019-04-03T00:54:21.920Z,99327.66
2019-04-03T00:56:50.354Z,99326.42
2019-04-03T00:59:18.800Z,99323.45
2019-04-03T01:01:47.324Z,99331.20
2019-04-03T01:04:15.784Z,99325.20
2019-04-03T01:06:44.304Z,99334.51
2019-04-03T01:09:13.338Z,99337.27
2019-04-03T01:11:41.762Z,99335.29
2019-04-03T01:14:10.218Z,99329.31
2019-04-03T01:16:38.657Z,99336.98
2019-04-03T01:19:07.085Z,99330.11
2019-04-03T01:21:37.270Z,99328.00
2019-04-03T01:24:07.488Z,99329.33
2019-04-03T01:26:36.030Z,99327.72
2019-04-03T01:29:04.573Z,99329.94
2019-04-03T01:31:33.004Z,99329.03
2019-04-03T01:34:01.436Z,99324.16
2019-04-03T01:36:29.919Z,99325.81
2019-04-03T01:38:58.356Z,99315.31
2019-04-03T01:41:26.933Z,99309.78
2019-04-03T01:43:55.349Z,99304.49
2019-04-03T01:46:23.818Z,99301.73
2019-04-03T01:48:52.481Z,99299.45
2019-04-03T01:51:20.930Z,99295.76
2019-04-03T01:53:49.605Z,99292.55
2019-04-03T01:56:18.214Z,99291.27
2019-04-03T01:58:46.676Z,99285.82
2019-04-03T02:01:15.133Z,99287.70
2019-04-03T02:03:43.590Z,99285.52
2019-04-03T02:06:13.574Z,99275.78
2019-04-03T02:08:44.251Z,99271.16
2019-04-03T02:11:12.633Z,99270.41
2019-04-03T02:13:41.346Z,99269.64
2019-04-03T02:16:09.845Z,99276.86
2019-04-03T02:18:38.430Z,99275.84
2019-04-03T02:21:06.827Z,99269.95
2019-04-03T02:23:35.277Z,99262.77
2019-04-03T02:26:03.795Z,99264.55
2019-04-03T02:28:34.207Z,99257.45
2019-04-03T02:31:02.542Z,99249.05
2019-04-03T02:33:30.988Z,99248.59
2019-04-03T02:35:59.421Z,99241.77
2019-04-03T02:38:28.895Z,99240.20
2019-04-03T02:40:57.954Z,99233.53
2019-04-03T02:43:26.468Z,99241.89
2019-04-03T02:45:56.318Z,99238.15
2019-04-03T02:48:25.140Z,99236.09
2019-04-03T02:50:53.823Z,99236.70
2019-04-03T02:53:22.464Z,99226.15
2019-04-03T02:55:51.042Z,99235.47
2019-04-03T02:58:22.228Z,99230.98
2019-04-03T03:00:49.726Z,99235.14
2019-04-03T03:03:18.629Z,99230.77
2019-04-03T03:05:47.198Z,99236.38
2019-04-03T03:08:16.604Z,99226.30
2019-04-03T03:10:46.022Z,99216.23
2019-04-03T03:13:15.771Z,99206.08
2019-04-03T03:15:45.014Z,99203.40
2019-04-03T03:18:14.122Z,99203.77
2019-04-03T03:20:42.885Z,99209.13
2019-04-03T03:23:13.855Z,99200.45
2019-04-03T03:25:43.341Z,99202.72
2019-04-03T03:28:14.452Z,99200.11
2019-04-03T03:30:54.886Z,99200.56
2019-04-03T03:33:32.669Z,99201.67
2019-04-03T03:35:48.882Z,99200.45
2019-04-03T03:38:18.206Z,99201.22
2019-04-03T03:40:48.614Z,99198.44
2019-04-03T03:43:17.270Z,99208.34
2019-04-03T03:45:45.872Z,99198.33
2019-04-03T03:48:15.186Z,99199.69
2019-04-03T03:50:46.151Z,99193.30
2019-04-03T03:53:15.400Z,99193.30
2019-04-03T03:55:45.103Z,99197.28
2019-04-03T03:58:14.124Z,99195.45
2019-04-03T04:00:42.956Z,99199.31
2019-04-03T04:03:12.018Z,99198.53
2019-04-03T04:05:40.962Z,99201.64
2019-04-03T04:08:14.143Z,99199.22
2019-04-03T04:10:43.929Z,99197.53
2019-04-03T04:13:15.517Z,99197.16
2019-04-03T04:15:44.299Z,99203.70
2019-04-03T04:18:14.416Z,99207.27
2019-04-03T04:20:43.548Z,99210.02
2019-04-03T04:23:12.143Z,99213.08
2019-04-03T04:25:43.415Z,99212.20
2019-04-03T04:28:10.970Z,99211.55
2019-04-03T04:30:40.813Z,99212.61
2019-04-03T04:33:09.599Z,99215.62
2019-04-03T04:35:38.106Z,99217.00
2019-04-03T04:38:06.536Z,99213.56
2019-04-03T04:40:35.094Z,99216.17
2019-04-03T04:43:04.344Z,99215.13
2019-04-03T04:45:33.923Z,99208.36
2019-04-03T04:48:02.665Z,99208.04
2019-04-03T04:50:31.149Z,99216.67
2019-04-03T04:52:59.598Z,99212.38
2019-04-03T04:55:30.359Z,99213.08
2019-04-03T04:57:58.208Z,99211.80
2019-04-03T05:00:29.404Z,99203.34
2019-04-03T05:02:56.837Z,99207.95
2019-04-03T05:05:27.189Z,99206.63
2019-04-03T05:07:55.477Z,99211.06
2019-04-03T05:10:24.139Z,99212.75
2019-04-03T05:12:52.850Z,99215.22
2019-04-03T05:15:23.468Z,99215.86
2019-04-03T05:17:51.613Z,99217.09
2019-04-03T05:20:20.545Z,99215.67
2019-04-03T05:22:49.277Z,99212.11
2019-04-03T05:25:17.924Z,99219.59
2019-04-03T05:27:46.410Z,99227.20
2019-04-03T05:30:21.043Z,99230.75
2019-04-03T05:32:49.771Z,99228.78
2019-04-03T05:35:18.220Z,99231.86
2019-04-03T05:37:46.856Z,99231.40
2019-04-03T05:40:15.700Z,99232.66
2019-04-03T05:42:44.130Z,99229.92
2019-04-03T05:45:12.558Z,99237.15
2019-04-03T05:47:41.042Z,99232.94
2019-04-03T05:50:09.656Z,99241.77
2019-04-03T05:52:38.080Z,99250.09
2019-04-03T05:55:09.154Z,99254.30
2019-04-03T05:57:37.441Z,99256.44
2019-04-03T06:00:09.465Z,99263.16
2019-04-03T06:02:37.952Z,99268.00
2019-04-03T06:05:07.778Z,99271.78
2019-04-03T06:07:36.339Z,99276.41
2019-04-03T06:10:06.658Z,99277.47
2019-04-03T06:12:36.773Z,99276.14
2019-04-03T06:15:10.154Z,99274.08
2019-04-03T06:17:39.048Z,99271.63
2019-04-03T06:20:10.884Z,99273.57
2019-04-03T06:22:38.376Z,99280.25
2019-04-03T06:25:12.251Z,99276.41
2019-04-03T06:27:39.089Z,99277.59
2019-04-03T06:30:08.531Z,99284.36
2019-04-03T06:32:37.090Z,99282.45
2019-04-03T06:35:06.474Z,99288.03
2019-04-03T06:37:34.926Z,99280.34
2019-04-03T06:40:05.241Z,99288.70
2019-04-03T06:42:33.845Z,99282.35
2019-04-03T06:45:02.586Z,99286.57
2019-04-03T06:47:32.207Z,99286.30
2019-04-03T06:50:01.509Z,99283.42
2019-04-03T06:52:29.963Z,99283.50
2019-04-03T06:54:58.471Z,99290.01
2019-04-03T06:57:26.975Z,99283.66
2019-04-03T06:59:55.649Z,99286.53
2019-04-03T07:02:27.300Z,99280.81
2019-04-03T07:04:54.585Z,99290.10
2019-04-03T07:07:32.972Z,99287.59
2019-04-03T07:09:53.457Z,99297.60
2019-04-03T07:12:22.212Z,99294.31
2019-04-03T07:14:50.868Z,99298.34
2019-04-03T07:17:19.329Z,99303.19
2019-04-03T07:19:48.514Z,99305.09
2019-04-03T07:22:17.161Z,99306.23
2019-04-03T07:24:45.658Z,99315.91
2019-04-03T07:27:15.159Z,99319.84
2019-04-03T07:29:44.171Z,99318.15
2019-04-03T07:32:12.687Z,99314.95
2019-04-03T07:34:41.133Z,99319.05
2019-04-03T07:37:09.872Z,99318.02
2019-04-03T07:39:38.610Z,99319.05
2019-04-03T07:42:07.059Z,99323.47
2019-04-03T07:44:35.650Z,99326.16
2019-04-03T07:47:04.724Z,99322.91
2019-04-03T07:49:33.698Z,99316.18
2019-04-03T07:52:02.577Z,99322.03
2019-04-03T07:54:31.011Z,99317.50
2019-04-03T07:56:59.671Z,99326.04
2019-04-03T07:59:28.400Z,99327.41
2019-04-03T08:01:56.926Z,99324.47
2019-04-03T08:04:25.856Z,99330.91
2019-04-03T08:06:54.507Z,99326.70
2019-04-03T08:09:22.942Z,99333.92
2019-04-03T08:11:51.392Z,99328.41
2019-04-03T08:14:20.268Z,99338.14
2019-04-03T08:16:48.927Z,99340.24
2019-04-03T08:19:17.889Z,99342.31
2019-04-03T08:21:46.584Z,99335.58
2019-04-03T08:24:15.383Z,99337.77
2019-04-03T08:26:43.946Z,99347.22
2019-04-03T08:29:13.281Z,99352.33
2019-04-03T08:31:44.179Z,99358.16
2019-04-03T08:34:16.813Z,99359.96
2019-04-03T08:36:42.001Z,99361.78
2019-04-03T08:39:15.677Z,99364.30
2019-04-03T08:41:43.725Z,99361.66
2019-04-03T08:44:12.156Z,99361.94
2019-04-03T08:46:43.014Z,99360.75
2019-04-03T08:49:10.771Z,99362.48
2019-04-03T08:51:39.229Z,99356.42
2019-04-03T08:54:09.536Z,99358.44
2019-04-03T08:56:37.841Z,99360.25
2019-04-03T08:59:06.271Z,99347.88
2019-04-03T09:01:37.037Z,99346.47
2019-04-03T09:04:05.054Z,99336.28
2019-04-03T09:06:33.688Z,99345.36
2019-04-03T09:09:02.578Z,99342.34
2019-04-03T09:11:31.198Z,99340.58
2019-04-03T09:13:59.631Z,99338.84
2019-04-03T09:16:28.845Z,99339.01
2019-04-03T09:18:58.229Z,99337.35
2019-04-03T09:21:26.670Z,99335.25
2019-04-03T09:23:56.670Z,99337.35
2019-04-03T09:26:25.456Z,99342.18
2019-04-03T09:28:53.881Z,99338.80
2019-04-03T09:31:22.327Z,99323.78
2019-04-03T09:33:50.752Z,99321.18
2019-04-03T09:36:19.279Z,99317.67
2019-04-03T09:38:47.665Z,99314.63
2019-04-03T09:41:18.514Z,99314.17
2019-04-03T09:43:46.580Z,99310.16
2019-04-03T09:46:15.163Z,99306.48
2019-04-03T09:48:43.620Z,99312.80
2019-04-03T09:51:12.133Z,99300.95
2019-04-03T09:53:40.586Z,99298.59
2019-04-03T09:56:09.288Z,99300.16
2019-04-03T09:58:37.964Z,99295.54
2019-04-03T10:01:07.243Z,99293.72
2019-04-03T10:03:35.692Z,99294.20
2019-04-03T10:06:04.883Z,99294.48
2019-04-03T10:08:33.915Z,99294.15
2019-04-03T10:11:02.778Z,99295.25
2019-04-03T10:13:31.375Z,99293.48
2019-04-03T10:16:03.239Z,99293.75
2019-04-03T10:18:30.426Z,99289.36
2019-04-03T10:20:59.257Z,99287.86
2019-04-03T10:23:29.049Z,99292.87
2019-04-03T10:25:57.900Z,99285.98
2019-04-03T10:28:26.488Z,99275.23
2019-04-03T10:30:54.915Z,99266.14
2019-04-03T10:33:23.344Z,99260.89
2019-04-03T10:35:51.801Z,99265.91
2019-04-03T10:38:20.671Z,99269.13
2019-04-03T10:40:49.309Z,99266.56
2019-04-03T10:43:17.771Z,99264.91
2019-04-03T10:45:46.193Z,99253.15
2019-04-03T10:48:14.621Z,99257.87
2019-04-03T10:50:43.079Z,99245.97
2019-04-03T10:53:11.536Z,99248.67
2019-04-03T10:55:40.148Z,99244.05
2019-04-03T10:58:09.136Z,99242.54
2019-04-03T11:00:38.252Z,99239.69
2019-04-03T11:03:07.339Z,99244.48
2019-04-03T11:05:36.092Z,99236.36
2019-04-03T11:08:04.771Z,99235.55
2019-04-03T11:10:33.244Z,99235.36
2019-04-03T11:13:03.287Z,99232.99
2019-04-03T11:15:32.004Z,99233.89
2019-04-03T11:18:00.532Z,99233.13
2019-04-03T11:20:28.938Z,99232.72
2019-04-03T11:23:06.061Z,99232.09
2019-04-03T11:25:27.772Z,99233.78
2019-04-03T11:27:56.388Z,99230.45
2019-04-03T11:30:25.706Z,99218.80
2019-04-03T11:32:54.397Z,99218.30
2019-04-03T11:35:23.056Z,99213.67
2019-04-03T11:37:51.777Z,99210.97
2019-04-03T11:40:24.048Z,99216.49
2019-04-03T11:42:51.233Z,99210.77
2019-04-03T11:45:20.257Z,99207.78
2019-04-03T11:47:49.030Z,99210.45
2019-04-03T11:50:18.182Z,99205.78
2019-04-03T11:52:46.626Z,99206.75
2019-04-03T11:55:15.947Z,99214.55
2019-04-03T11:57:47.387Z,99212.62
2019-04-03T12:00:17.137Z,99205.58
2019-04-03T12:02:45.610Z,99199.73
2019-04-03T12:05:20.489Z,99192.61
2019-04-03T12:07:47.581Z,99190.69
2019-04-03T12:10:16.825Z,99185.11
2019-04-03T12:12:45.240Z,99185.06
2019-04-03T12:15:16.223Z,99189.32
2019-04-03T12:17:44.418Z,99188.13
2019-04-03T12:20:15.816Z,99183.37
2019-04-03T12:22:44.346Z,99187.09
2019-04-03T12:25:13.431Z,99186.70
2019-04-03T12:27:44.913Z,99186.58
2019-04-03T12:30:12.784Z,99178.43
2019-04-03T12:32:45.338Z,99179.05
2019-04-03T12:35:11.757Z,99173.09
2019-04-03T12:37:40.300Z,99172.69
2019-04-03T12:40:09.767Z,99167.19
2019-04-03T12:42:38.315Z,99171.95
2019-04-03T12:45:07.552Z,99175.80
2019-04-03T12:47:36.164Z,99173.09
2019-04-03T12:50:12.884Z,99180.69
2019-04-03T12:52:43.497Z,99188.04
2019-04-03T12:55:12.092Z,99184.30
2019-04-03T12:57:40.587Z,99179.63
2019-04-03T13:00:14.700Z,99177.37
2019-04-03T13:02:43.293Z,99170.59
2019-04-03T13:05:12.636Z,99175.78
2019-04-03T13:07:41.574Z,99171.48
2019-04-03T13:10:11.073Z,99166.50
2019-04-03T13:12:39.585Z,99156.61
2019-04-03T13:15:10.443Z,99158.66
2019-04-03T13:17:39.183Z,99141.50
2019-04-03T13:20:09.144Z,99146.36
2019-04-03T13:22:37.980Z,99145.91
2019-04-03T13:25:10.078Z,99133.42
2019-04-03T13:27:38.509Z,99128.39
2019-04-03T13:30:13.037Z,99127.11
2019-04-03T13:32:41.800Z,99126.34
2019-04-03T13:35:10.688Z,99124.59
2019-04-03T13:37:39.152Z,99111.43
2019-04-03T13:40:09.187Z,99111.13
2019-04-03T13:42:37.875Z,99106.42
2019-04-03T13:45:09.441Z,99101.29
2019-04-03T13:47:41.521Z,99098.23
2019-04-03T13:50:09.939Z,99096.38
2019-04-03T13:52:42.342Z,99093.28
2019-04-03T13:55:09.754Z,99096.69
2019-04-03T13:57:38.619Z,99089.98
2019-04-03T14:00:19.069Z,99094.30
2019-04-03T14:02:39.674Z,99095.66
2019-04-03T14:05:11.941Z,99096.48
2019-04-03T14:07:43.990Z,99084.80
2019-04-03T14:10:12.503Z,99088.05
2019-04-03T14:12:44.209Z,99087.45
2019-04-03T14:15:11.503Z,99085.86
2019-04-03T14:17:39.926Z,99095.75
2019-04-03T14:20:09.970Z,99083.70
2019-04-03T14:22:38.692Z,99088.02
2019-04-03T14:25:19.867Z,99086.39
2019-04-03T14:27:39.906Z,99086.73
2019-04-03T14:30:11.592Z,99079.59
2019-04-03T14:32:39.985Z,99080.55
2019-04-03T14:35:39.042Z,99080.30
2019-04-03T14:37:39.905Z,99078.69
2019-04-03T14:40:11.528Z,99083.91
2019-04-03T14:42:38.914Z,99080.98
2019-04-03T14:45:08.414Z,99081.62
2019-04-03T14:47:36.855Z,99079.72
2019-04-03T14:50:08.185Z,99073.64
2019-04-03T14:52:36.761Z,99075.06
2019-04-03T14:55:18.202Z,99069.45
2019-04-03T14:57:37.343Z,99058.73
2019-04-03T15:00:25.212Z,99065.31
2019-04-03T15:02:41.458Z,99066.18
2019-04-03T15:05:10.798Z,99067.18
2019-04-03T15:07:39.302Z,99058.62
2019-04-03T15:10:08.592Z,99064.19
2019-04-03T15:12:39.842Z,99056.32
2019-04-03T15:15:09.678Z,99053.36
2019-04-03T15:17:39.263Z,99050.92
2019-04-03T15:20:09.556Z,99045.10
2019-04-03T15:22:38.271Z,99041.17
2019-04-03T15:25:07.494Z,99038.46
2019-04-03T15:27:37.010Z,99027.09
2019-04-03T15:30:09.969Z,99025.88
2019-04-03T15:32:42.523Z,99025.27
2019-04-03T15:35:11.387Z,99024.82
2019-04-03T15:37:41.458Z,99026.59
2019-04-03T15:40:10.517Z,99026.85
2019-04-03T15:42:41.268Z,99024.28
2019-04-03T15:45:10.692Z,99022.61
2019-04-03T15:47:44.993Z,99024.36
2019-04-03T15:50:11.981Z,99029.58
2019-04-03T15:52:43.134Z,99029.58
2019-04-03T15:55:10.830Z,99024.61
2019-04-03T15:57:40.690Z,99024.64
2019-04-03T16:00:15.720Z,99027.00
2019-04-03T16:02:46.373Z,99024.78
2019-04-03T16:05:15.647Z,99021.36
2019-04-03T16:07:44.148Z,99006.89
2019-04-03T16:10:14.128Z,99006.09
2019-04-03T16:12:44.008Z,99003.73
2019-04-03T16:15:15.313Z,98995.48
2019-04-03T16:17:44.217Z,98992.44
2019-04-03T16:20:15.831Z,98995.89
2019-04-03T16:22:43.864Z,98993.31
2019-04-03T16:25:15.559Z,98996.45
2019-04-03T16:27:43.080Z,98982.48
2019-04-03T16:30:14.809Z,98988.19
2019-04-03T16:32:42.565Z,98989.48
2019-04-03T16:35:13.743Z,98985.59
2019-04-03T16:37:41.645Z,98980.78
2019-04-03T16:40:12.613Z,98980.53
2019-04-03T16:42:41.635Z,98977.39
2019-04-03T16:45:11.129Z,98985.78
2019-04-03T16:47:40.160Z,98982.61
2019-04-03T16:50:16.230Z,98974.89
2019-04-03T16:52:47.338Z,98977.75
2019-04-03T16:55:15.937Z,98980.04
2019-04-03T16:57:45.604Z,98976.64
2019-04-03T17:00:14.817Z,98978.75
2019-04-03T17:02:43.744Z,98982.80
2019-04-03T17:05:12.627Z,98978.94
2019-04-03T17:07:41.905Z,98979.48
2019-04-03T17:10:10.923Z,98982.38
2019-04-03T17:12:39.801Z,98973.91
2019-04-03T17:15:09.865Z,98976.09
2019-04-03T17:17:41.152Z,98976.81
2019-04-03T17:20:12.052Z,98970.18
2019-04-03T17:22:41.872Z,98968.37
2019-04-03T17:25:11.736Z,98974.84
2019-04-03T17:27:40.255Z,98975.41
2019-04-03T17:30:12.350Z,98979.80
2019-04-03T17:32:40.949Z,98976.11
2019-04-03T17:35:10.009Z,98974.15
2019-04-03T17:37:38.578Z,98977.25
2019-04-03T17:40:10.419Z,98976.91
2019-04-03T17:42:39.950Z,98973.08
2019-04-03T17:45:09.677Z,98972.27
2019-04-03T17:47:38.277Z,98973.63
2019-04-03T17:50:08.036Z,98971.83
2019-04-03T17:52:37.088Z,98970.91
2019-04-03T17:55:10.988Z,98969.40
2019-04-03T17:57:39.532Z,98959.37
2019-04-03T18:00:13.738Z,98951.90
2019-04-03T18:02:42.385Z,98948.58
2019-04-03T18:05:11.429Z,98941.54
2019-04-03T18:07:40.223Z,98931.83
2019-04-03T18:10:12.471Z,98928.28
2019-04-03T18:12:39.373Z,98923.81
2019-04-03T18:15:09.563Z,98923.22
2019-04-03T18:17:38.072Z,98929.77
2019-04-03T18:20:08.307Z,98928.19
2019-04-03T18:22:36.817Z,98917.63
2019-04-03T18:25:08.267Z,98912.66
2019-04-03T18:27:37.388Z,98916.64
2019-04-03T18:30:11.151Z,98905.25
2019-04-03T18:32:39.266Z,98904.96
2019-04-03T18:35:08.600Z,98899.08
2019-04-03T18:37:40.475Z,98891.97
2019-04-03T18:40:14.272Z,98894.66
2019-04-03T18:42:41.441Z,98885.85
2019-04-03T18:45:24.050Z,98874.25
2019-04-03T18:47:43.934Z,98868.89
2019-04-03T18:50:12.606Z,98869.55
2019-04-03T18:52:41.104Z,98861.55
2019-04-03T18:55:09.611Z,98866.05
2019-04-03T18:57:38.109Z,98862.73
2019-04-03T19:00:09.179Z,98859.17
2019-04-03T19:02:38.103Z,98868.14
2019-04-03T19:05:13.779Z,98862.94
2019-04-03T19:07:40.433Z,98866.33
2019-04-03T19:10:09.039Z,98863.23
2019-04-03T19:12:37.548Z,98846.40
2019-04-03T19:15:07.924Z,98846.70
2019-04-03T19:17:36.537Z,98833.75
2019-04-03T19:20:10.767Z,98833.88
2019-04-03T19:22:37.612Z,98836.37
2019-04-03T19:25:09.808Z,98835.31
2019-04-03T19:27:38.274Z,98834.55
2019-04-03T19:30:08.080Z,98826.17
2019-04-03T19:32:36.689Z,98824.22
2019-04-03T19:35:09.468Z,98831.45
2019-04-03T19:37:38.008Z,98834.66
2019-04-03T19:40:09.717Z,98833.13
2019-04-03T19:42:38.886Z,98823.87
2019-04-03T19:45:08.664Z,98830.88
2019-04-03T19:47:37.163Z,98834.27
2019-04-03T19:50:09.494Z,98830.39
2019-04-03T19:52:41.447Z,98827.89
2019-04-03T19:55:08.637Z,98822.77
2019-04-03T19:57:37.088Z,98806.80
2019-04-03T20:00:09.056Z,98793.67
2019-04-03T20:02:38.321Z,98779.23
2019-04-03T20:05:08.009Z,98789.83
2019-04-03T20:07:36.650Z,98795.34
2019-04-03T20:10:10.043Z,98796.45
2019-04-03T20:12:38.677Z,98793.06
2019-04-03T20:15:08.351Z,98780.42
2019-04-03T20:17:36.857Z,98772.65
2019-04-03T20:20:09.731Z,98775.82
2019-04-03T20:22:42.142Z,98772.50
2019-04-03T20:25:09.398Z,98768.27
2019-04-03T20:27:37.949Z,98766.98
2019-04-03T20:30:09.992Z,98752.67
2019-04-03T20:32:40.779Z,98750.47
2019-04-03T20:35:09.391Z,98747.27
2019-04-03T20:37:37.947Z,98746.16
2019-04-03T20:40:07.174Z,98741.26
2019-04-03T20:42:35.888Z,98725.03
2019-04-03T20:45:09.213Z,98718.27
2019-04-03T20:47:37.723Z,98708.91
2019-04-03T20:50:07.756Z,98705.53
2019-04-03T20:52:36.694Z,98709.59
2019-04-03T20:55:07.898Z,98703.71
2019-04-03T20:57:38.162Z,98704.23
2019-04-03T21:00:10.314Z,98702.95
2019-04-03T21:02:41.164Z,98694.52
2019-04-03T21:05:09.240Z,98695.44
2019-04-03T21:07:37.725Z,98688.58
2019-04-03T21:10:08.644Z,98690.84
2019-04-03T21:12:37.721Z,98693.00
2019-04-03T21:15:09.179Z,98689.32
2019-04-03T21:17:38.326Z,98703.11
2019-04-03T21:20:07.889Z,98704.76
2019-04-03T21:22:36.700Z,98704.77
2019-04-03T21:25:06.312Z,98706.27
2019-04-03T21:27:35.334Z,98719.23
2019-04-03T21:30:05.444Z,98724.41
2019-04-03T21:32:34.033Z,98713.43
2019-04-03T21:35:04.005Z,98721.79
2019-04-03T21:37:33.177Z,98765.52
2019-04-03T21:40:04.708Z,98892.38
2019-04-03T21:42:32.980Z,98903.45
2019-04-03T21:45:02.702Z,98916.44
2019-04-03T21:47:31.705Z,98908.70
2019-04-03T21:50:03.463Z,98913.30
2019-04-03T21:52:30.619Z,98927.69
2019-04-03T21:54:59.388Z,98936.66
2019-04-03T21:57:28.003Z,98975.57
2019-04-03T21:59:56.675Z,98982.23
2019-04-03T22:02:25.455Z,98998.37
2019-04-03T22:04:54.638Z,98999.71
2019-04-03T22:07:23.129Z,98995.05
2019-04-03T22:09:52.542Z,98985.86
2019-04-03T22:12:21.054Z,98977.88
2019-04-03T22:14:49.868Z,98985.89
2019-04-03T22:17:21.692Z,98984.76
2019-04-03T22:19:49.291Z,98980.30
2019-04-03T22:22:18.119Z,98975.91
2019-04-03T22:24:46.558Z,98972.86
2019-04-03T22:27:15.062Z,98959.73
2019-04-03T22:29:43.518Z,98935.13
2019-04-03T22:32:11.962Z,98923.52
2019-04-03T22:34:40.434Z,98918.62
2019-04-03T22:37:09.146Z,98908.74
2019-04-03T22:39:49.826Z,98909.61
2019-04-03T22:42:18.270Z,98907.53
2019-04-03T22:44:48.295Z,98891.50
2019-04-03T22:47:17.035Z,98913.98
2019-04-03T22:49:45.483Z,98909.78
2019-04-03T22:52:13.919Z,98915.50
2019-04-03T22:54:43.893Z,98939.87
2019-04-03T22:57:12.529Z,98947.63
2019-04-03T22:59:40.966Z,98926.55
2019-04-03T23:02:09.400Z,98895.55
2019-04-03T23:04:37.871Z,98885.22
2019-04-03T23:07:06.303Z,98874.48
2019-04-03T23:09:34.860Z,98855.90
2019-04-03T23:12:03.646Z,98851.52
2019-04-03T23:14:32.252Z,98857.61
2019-04-03T23:17:00.689Z,98862.59
2019-04-03T23:19:32.179Z,98861.02
2019-04-03T23:21:59.340Z,98857.64
2019-04-03T23:24:29.002Z,98874.55
2019-04-03T23:26:58.184Z,98888.34
2019-04-03T23:29:26.623Z,98877.27
2019-04-03T23:31:55.085Z,98887.59
2019-04-03T23:34:23.522Z,98895.73
2019-04-03T23:36:52.446Z,98895.23
2019-04-03T23:39:22.205Z,98898.22
2019-04-03T23:41:50.713Z,98893.91
2019-04-03T23:44:19.192Z,98902.77
2019-04-03T23:46:47.669Z,98902.27
2019-04-03T23:49:16.101Z,98892.48
2019-04-03T23:51:44.610Z,98902.00
2019-04-03T23:54:13.135Z,98911.03
2019-04-03T23:56:41.603Z,98907.55
2019-04-03T23:59:12.679Z,98909.55
